sensor_id;sensor_type;location;lat;lon;timestamp;P1;durP1;ratioP1;P2;durP2;ratioP2
74465;SDS011;62916;50.044;15.938;2023-08-06T00:00:35;0.80;;;0.70;;
74465;SDS011;62916;50.044;15.938;2023-08-06T00:03:06;1.20;;;0.80;;
74465;SDS011;62916;50.044;15.938;2023-08-06T00:05:37;0.80;;;0.60;;
74465;SDS011;62916;50.044;15.938;2023-08-06T00:08:11;1.20;;;1.10;;
74465;SDS011;62916;50.044;15.938;2023-08-06T00:10:42;0.80;;;0.80;;
74465;SDS011;62916;50.044;15.938;2023-08-06T00:13:13;1.10;;;0.70;;
74465;SDS011;62916;50.044;15.938;2023-08-06T00:15:44;0.90;;;0.80;;
74465;SDS011;62916;50.044;15.938;2023-08-06T00:18:15;1.40;;;1.30;;
74465;SDS011;62916;50.044;15.938;2023-08-06T00:20:46;0.70;;;0.60;;
74465;SDS011;62916;50.044;15.938;2023-08-06T00:23:17;0.60;;;0.50;;
74465;SDS011;62916;50.044;15.938;2023-08-06T00:25:50;0.60;;;0.60;;
74465;SDS011;62916;50.044;15.938;2023-08-06T00:28:20;0.60;;;0.60;;
74465;SDS011;62916;50.044;15.938;2023-08-06T00:30:53;0.70;;;0.70;;
74465;SDS011;62916;50.044;15.938;2023-08-06T00:33:24;1.00;;;0.50;;
74465;SDS011;62916;50.044;15.938;2023-08-06T00:35:55;0.80;;;0.70;;
74465;SDS011;62916;50.044;15.938;2023-08-06T00:38:26;0.80;;;0.80;;
74465;SDS011;62916;50.044;15.938;2023-08-06T00:40:57;0.90;;;0.70;;
74465;SDS011;62916;50.044;15.938;2023-08-06T00:43:28;0.60;;;0.60;;
74465;SDS011;62916;50.044;15.938;2023-08-06T00:45:59;0.70;;;0.70;;
74465;SDS011;62916;50.044;15.938;2023-08-06T00:48:30;0.50;;;0.50;;
74465;SDS011;62916;50.044;15.938;2023-08-06T00:51:01;0.60;;;0.60;;
74465;SDS011;62916;50.044;15.938;2023-08-06T00:53:32;0.60;;;0.60;;
74465;SDS011;62916;50.044;15.938;2023-08-06T00:56:04;1.60;;;0.50;;
74465;SDS011;62916;50.044;15.938;2023-08-06T00:58:35;2.80;;;0.80;;
74465;SDS011;62916;50.044;15.938;2023-08-06T01:01:07;0.50;;;0.50;;
74465;SDS011;62916;50.044;15.938;2023-08-06T01:03:40;0.60;;;0.60;;
74465;SDS011;62916;50.044;15.938;2023-08-06T01:06:11;0.50;;;0.50;;
74465;SDS011;62916;50.044;15.938;2023-08-06T01:08:45;0.50;;;0.50;;
74465;SDS011;62916;50.044;15.938;2023-08-06T01:11:25;1.00;;;0.90;;
74465;SDS011;62916;50.044;15.938;2023-08-06T01:14:06;0.40;;;0.40;;
74465;SDS011;62916;50.044;15.938;2023-08-06T01:16:42;0.50;;;0.50;;
74465;SDS011;62916;50.044;15.938;2023-08-06T01:19:17;1.10;;;0.50;;
74465;SDS011;62916;50.044;15.938;2023-08-06T01:21:48;0.40;;;0.30;;
74465;SDS011;62916;50.044;15.938;2023-08-06T01:24:19;1.90;;;0.50;;
74465;SDS011;62916;50.044;15.938;2023-08-06T01:26:54;1.80;;;0.50;;
74465;SDS011;62916;50.044;15.938;2023-08-06T01:29:31;0.50;;;0.40;;
74465;SDS011;62916;50.044;15.938;2023-08-06T01:32:06;0.50;;;0.50;;
74465;SDS011;62916;50.044;15.938;2023-08-06T01:34:41;0.30;;;0.30;;
74465;SDS011;62916;50.044;15.938;2023-08-06T01:37:16;0.50;;;0.40;;
74465;SDS011;62916;50.044;15.938;2023-08-06T01:39:46;0.70;;;0.50;;
74465;SDS011;62916;50.044;15.938;2023-08-06T01:42:17;0.50;;;0.50;;
74465;SDS011;62916;50.044;15.938;2023-08-06T01:44:48;0.90;;;0.50;;
74465;SDS011;62916;50.044;15.938;2023-08-06T01:47:19;0.80;;;0.80;;
74465;SDS011;62916;50.044;15.938;2023-08-06T01:49:50;0.40;;;0.30;;
74465;SDS011;62916;50.044;15.938;2023-08-06T01:52:21;0.80;;;0.30;;
74465;SDS011;62916;50.044;15.938;2023-08-06T01:54:52;0.40;;;0.40;;
74465;SDS011;62916;50.044;15.938;2023-08-06T01:57:23;0.40;;;0.30;;
74465;SDS011;62916;50.044;15.938;2023-08-06T01:59:54;0.50;;;0.50;;
74465;SDS011;62916;50.044;15.938;2023-08-06T02:02:25;0.40;;;0.40;;
74465;SDS011;62916;50.044;15.938;2023-08-06T02:04:57;0.50;;;0.30;;
74465;SDS011;62916;50.044;15.938;2023-08-06T02:07:28;0.50;;;0.40;;
74465;SDS011;62916;50.044;15.938;2023-08-06T02:10:00;0.80;;;0.30;;
74465;SDS011;62916;50.044;15.938;2023-08-06T02:12:31;0.90;;;0.50;;
74465;SDS011;62916;50.044;15.938;2023-08-06T02:15:02;0.30;;;0.30;;
74465;SDS011;62916;50.044;15.938;2023-08-06T02:17:33;0.40;;;0.40;;
74465;SDS011;62916;50.044;15.938;2023-08-06T02:20:05;0.60;;;0.40;;
74465;SDS011;62916;50.044;15.938;2023-08-06T02:22:37;1.10;;;0.40;;
74465;SDS011;62916;50.044;15.938;2023-08-06T02:25:08;0.50;;;0.40;;
74465;SDS011;62916;50.044;15.938;2023-08-06T02:27:39;0.40;;;0.30;;
74465;SDS011;62916;50.044;15.938;2023-08-06T02:30:10;0.60;;;0.60;;
74465;SDS011;62916;50.044;15.938;2023-08-06T02:32:41;0.30;;;0.30;;
74465;SDS011;62916;50.044;15.938;2023-08-06T02:35:12;0.60;;;0.40;;
74465;SDS011;62916;50.044;15.938;2023-08-06T02:37:43;0.50;;;0.40;;
74465;SDS011;62916;50.044;15.938;2023-08-06T02:40:14;0.60;;;0.40;;
74465;SDS011;62916;50.044;15.938;2023-08-06T02:42:45;0.30;;;0.30;;
74465;SDS011;62916;50.044;15.938;2023-08-06T02:45:16;0.50;;;0.40;;
74465;SDS011;62916;50.044;15.938;2023-08-06T02:47:47;1.10;;;0.40;;
74465;SDS011;62916;50.044;15.938;2023-08-06T02:50:19;0.40;;;0.40;;
74465;SDS011;62916;50.044;15.938;2023-08-06T02:52:50;0.60;;;0.30;;
74465;SDS011;62916;50.044;15.938;2023-08-06T02:55:21;0.60;;;0.50;;
74465;SDS011;62916;50.044;15.938;2023-08-06T02:57:52;0.50;;;0.30;;
74465;SDS011;62916;50.044;15.938;2023-08-06T03:00:23;0.50;;;0.40;;
74465;SDS011;62916;50.044;15.938;2023-08-06T03:02:54;0.30;;;0.30;;
74465;SDS011;62916;50.044;15.938;2023-08-06T03:05:25;0.70;;;0.30;;
74465;SDS011;62916;50.044;15.938;2023-08-06T03:07:56;0.40;;;0.40;;
74465;SDS011;62916;50.044;15.938;2023-08-06T03:10:27;0.20;;;0.20;;
74465;SDS011;62916;50.044;15.938;2023-08-06T03:12:58;0.30;;;0.30;;
74465;SDS011;62916;50.044;15.938;2023-08-06T03:15:29;1.20;;;0.50;;
74465;SDS011;62916;50.044;15.938;2023-08-06T03:18:00;0.30;;;0.30;;
74465;SDS011;62916;50.044;15.938;2023-08-06T03:20:31;0.70;;;0.50;;
74465;SDS011;62916;50.044;15.938;2023-08-06T03:23:02;0.50;;;0.50;;
74465;SDS011;62916;50.044;15.938;2023-08-06T03:25:36;0.40;;;0.40;;
74465;SDS011;62916;50.044;15.938;2023-08-06T03:28:07;0.30;;;0.30;;
74465;SDS011;62916;50.044;15.938;2023-08-06T03:30:38;0.60;;;0.60;;
74465;SDS011;62916;50.044;15.938;2023-08-06T03:33:09;0.90;;;0.40;;
74465;SDS011;62916;50.044;15.938;2023-08-06T03:35:40;0.40;;;0.40;;
74465;SDS011;62916;50.044;15.938;2023-08-06T03:38:11;0.80;;;0.30;;
74465;SDS011;62916;50.044;15.938;2023-08-06T03:40:42;0.30;;;0.30;;
74465;SDS011;62916;50.044;15.938;2023-08-06T03:43:13;0.40;;;0.40;;
74465;SDS011;62916;50.044;15.938;2023-08-06T03:45:44;0.70;;;0.70;;
74465;SDS011;62916;50.044;15.938;2023-08-06T03:48:14;0.40;;;0.40;;
74465;SDS011;62916;50.044;15.938;2023-08-06T03:50:45;0.30;;;0.30;;
74465;SDS011;62916;50.044;15.938;2023-08-06T03:53:16;0.70;;;0.20;;
74465;SDS011;62916;50.044;15.938;2023-08-06T03:55:47;0.30;;;0.30;;
74465;SDS011;62916;50.044;15.938;2023-08-06T03:58:18;0.30;;;0.30;;
74465;SDS011;62916;50.044;15.938;2023-08-06T04:00:48;0.70;;;0.70;;
74465;SDS011;62916;50.044;15.938;2023-08-06T04:03:29;0.80;;;0.40;;
74465;SDS011;62916;50.044;15.938;2023-08-06T04:05:59;0.60;;;0.30;;
74465;SDS011;62916;50.044;15.938;2023-08-06T04:08:30;0.40;;;0.40;;
74465;SDS011;62916;50.044;15.938;2023-08-06T04:11:01;2.80;;;0.50;;
74465;SDS011;62916;50.044;15.938;2023-08-06T04:13:32;0.80;;;0.80;;
74465;SDS011;62916;50.044;15.938;2023-08-06T04:16:03;0.50;;;0.40;;
74465;SDS011;62916;50.044;15.938;2023-08-06T04:18:34;0.40;;;0.40;;
74465;SDS011;62916;50.044;15.938;2023-08-06T04:21:05;0.40;;;0.40;;
74465;SDS011;62916;50.044;15.938;2023-08-06T04:23:38;1.50;;;0.20;;
74465;SDS011;62916;50.044;15.938;2023-08-06T04:26:09;0.80;;;0.40;;
74465;SDS011;62916;50.044;15.938;2023-08-06T04:28:40;1.10;;;0.20;;
74465;SDS011;62916;50.044;15.938;2023-08-06T04:31:11;0.50;;;0.40;;
74465;SDS011;62916;50.044;15.938;2023-08-06T04:33:42;1.30;;;0.40;;
74465;SDS011;62916;50.044;15.938;2023-08-06T04:36:13;0.90;;;0.40;;
74465;SDS011;62916;50.044;15.938;2023-08-06T04:38:43;0.30;;;0.30;;
74465;SDS011;62916;50.044;15.938;2023-08-06T04:41:15;0.50;;;0.40;;
74465;SDS011;62916;50.044;15.938;2023-08-06T04:43:45;0.50;;;0.30;;
74465;SDS011;62916;50.044;15.938;2023-08-06T04:46:18;0.90;;;0.90;;
74465;SDS011;62916;50.044;15.938;2023-08-06T04:48:49;0.30;;;0.20;;
74465;SDS011;62916;50.044;15.938;2023-08-06T04:51:22;0.60;;;0.30;;
74465;SDS011;62916;50.044;15.938;2023-08-06T04:53:52;0.30;;;0.30;;
74465;SDS011;62916;50.044;15.938;2023-08-06T04:56:25;0.10;;;0.10;;
74465;SDS011;62916;50.044;15.938;2023-08-06T04:58:56;2.20;;;0.80;;
74465;SDS011;62916;50.044;15.938;2023-08-06T05:01:27;0.30;;;0.30;;
74465;SDS011;62916;50.044;15.938;2023-08-06T05:03:58;0.50;;;0.30;;
74465;SDS011;62916;50.044;15.938;2023-08-06T05:06:31;0.80;;;0.20;;
74465;SDS011;62916;50.044;15.938;2023-08-06T05:09:02;0.30;;;0.30;;
74465;SDS011;62916;50.044;15.938;2023-08-06T05:11:34;0.30;;;0.20;;
74465;SDS011;62916;50.044;15.938;2023-08-06T05:14:04;0.50;;;0.30;;
74465;SDS011;62916;50.044;15.938;2023-08-06T05:16:35;0.60;;;0.20;;
74465;SDS011;62916;50.044;15.938;2023-08-06T05:19:06;0.90;;;0.20;;
74465;SDS011;62916;50.044;15.938;2023-08-06T05:21:38;0.20;;;0.20;;
74465;SDS011;62916;50.044;15.938;2023-08-06T05:24:09;0.30;;;0.30;;
74465;SDS011;62916;50.044;15.938;2023-08-06T05:26:40;0.50;;;0.40;;
74465;SDS011;62916;50.044;15.938;2023-08-06T05:29:15;0.70;;;0.30;;
74465;SDS011;62916;50.044;15.938;2023-08-06T05:31:47;0.30;;;0.20;;
74465;SDS011;62916;50.044;15.938;2023-08-06T05:34:18;0.30;;;0.30;;
74465;SDS011;62916;50.044;15.938;2023-08-06T05:36:49;0.20;;;0.20;;
74465;SDS011;62916;50.044;15.938;2023-08-06T05:39:20;0.50;;;0.20;;
74465;SDS011;62916;50.044;15.938;2023-08-06T05:41:51;0.60;;;0.60;;
74465;SDS011;62916;50.044;15.938;2023-08-06T05:44:23;0.50;;;0.30;;
74465;SDS011;62916;50.044;15.938;2023-08-06T05:46:54;0.50;;;0.10;;
74465;SDS011;62916;50.044;15.938;2023-08-06T05:49:25;0.20;;;0.20;;
74465;SDS011;62916;50.044;15.938;2023-08-06T05:51:56;0.30;;;0.10;;
74465;SDS011;62916;50.044;15.938;2023-08-06T05:54:27;0.30;;;0.30;;
74465;SDS011;62916;50.044;15.938;2023-08-06T05:56:58;0.60;;;0.20;;
74465;SDS011;62916;50.044;15.938;2023-08-06T05:59:29;1.10;;;0.30;;
74465;SDS011;62916;50.044;15.938;2023-08-06T06:02:00;0.40;;;0.30;;
74465;SDS011;62916;50.044;15.938;2023-08-06T06:04:31;0.40;;;0.40;;
74465;SDS011;62916;50.044;15.938;2023-08-06T06:07:02;1.10;;;0.20;;
74465;SDS011;62916;50.044;15.938;2023-08-06T06:09:33;2.50;;;0.40;;
74465;SDS011;62916;50.044;15.938;2023-08-06T06:12:06;1.20;;;0.50;;
74465;SDS011;62916;50.044;15.938;2023-08-06T06:14:37;1.30;;;0.60;;
74465;SDS011;62916;50.044;15.938;2023-08-06T06:17:08;1.20;;;0.80;;
74465;SDS011;62916;50.044;15.938;2023-08-06T06:19:38;1.10;;;0.80;;
74465;SDS011;62916;50.044;15.938;2023-08-06T06:22:09;1.10;;;0.90;;
74465;SDS011;62916;50.044;15.938;2023-08-06T06:24:40;1.70;;;1.00;;
74465;SDS011;62916;50.044;15.938;2023-08-06T06:27:11;1.30;;;1.00;;
74465;SDS011;62916;50.044;15.938;2023-08-06T06:29:42;1.80;;;1.20;;
74465;SDS011;62916;50.044;15.938;2023-08-06T06:32:13;2.20;;;1.20;;
74465;SDS011;62916;50.044;15.938;2023-08-06T06:34:44;1.20;;;0.80;;
74465;SDS011;62916;50.044;15.938;2023-08-06T06:37:15;0.70;;;0.60;;
74465;SDS011;62916;50.044;15.938;2023-08-06T06:39:46;1.50;;;1.40;;
74465;SDS011;62916;50.044;15.938;2023-08-06T06:42:17;1.00;;;0.90;;
74465;SDS011;62916;50.044;15.938;2023-08-06T06:44:48;1.40;;;0.70;;
74465;SDS011;62916;50.044;15.938;2023-08-06T06:47:19;0.50;;;0.50;;
74465;SDS011;62916;50.044;15.938;2023-08-06T06:49:51;1.10;;;0.70;;
74465;SDS011;62916;50.044;15.938;2023-08-06T06:52:22;0.90;;;0.70;;
74465;SDS011;62916;50.044;15.938;2023-08-06T06:54:53;0.90;;;0.70;;
74465;SDS011;62916;50.044;15.938;2023-08-06T06:57:24;0.90;;;0.70;;
74465;SDS011;62916;50.044;15.938;2023-08-06T06:59:54;0.60;;;0.50;;
74465;SDS011;62916;50.044;15.938;2023-08-06T07:02:25;0.70;;;0.60;;
74465;SDS011;62916;50.044;15.938;2023-08-06T07:04:56;0.40;;;0.30;;
74465;SDS011;62916;50.044;15.938;2023-08-06T07:07:27;1.40;;;0.40;;
74465;SDS011;62916;50.044;15.938;2023-08-06T07:09:58;2.00;;;0.60;;
74465;SDS011;62916;50.044;15.938;2023-08-06T07:12:28;1.50;;;0.60;;
74465;SDS011;62916;50.044;15.938;2023-08-06T07:14:59;1.20;;;0.70;;
74465;SDS011;62916;50.044;15.938;2023-08-06T07:17:31;0.60;;;0.60;;
74465;SDS011;62916;50.044;15.938;2023-08-06T07:20:02;0.90;;;0.80;;
74465;SDS011;62916;50.044;15.938;2023-08-06T07:22:35;0.90;;;0.60;;
74465;SDS011;62916;50.044;15.938;2023-08-06T07:25:06;0.60;;;0.60;;
74465;SDS011;62916;50.044;15.938;2023-08-06T07:27:38;0.60;;;0.60;;
74465;SDS011;62916;50.044;15.938;2023-08-06T07:30:09;0.60;;;0.50;;
74465;SDS011;62916;50.044;15.938;2023-08-06T07:32:40;0.50;;;0.50;;
74465;SDS011;62916;50.044;15.938;2023-08-06T07:35:11;0.60;;;0.60;;
74465;SDS011;62916;50.044;15.938;2023-08-06T07:37:42;1.20;;;0.50;;
74465;SDS011;62916;50.044;15.938;2023-08-06T07:40:13;0.60;;;0.60;;
74465;SDS011;62916;50.044;15.938;2023-08-06T07:42:45;0.80;;;0.80;;
74465;SDS011;62916;50.044;15.938;2023-08-06T07:45:16;0.60;;;0.60;;
74465;SDS011;62916;50.044;15.938;2023-08-06T07:47:46;0.50;;;0.50;;
74465;SDS011;62916;50.044;15.938;2023-08-06T07:50:17;1.10;;;0.50;;
74465;SDS011;62916;50.044;15.938;2023-08-06T07:52:48;0.90;;;0.60;;
74465;SDS011;62916;50.044;15.938;2023-08-06T07:55:19;0.90;;;0.60;;
74465;SDS011;62916;50.044;15.938;2023-08-06T07:57:50;0.50;;;0.50;;
74465;SDS011;62916;50.044;15.938;2023-08-06T08:00:21;0.50;;;0.50;;
74465;SDS011;62916;50.044;15.938;2023-08-06T08:02:52;0.60;;;0.60;;
74465;SDS011;62916;50.044;15.938;2023-08-06T08:05:23;0.70;;;0.70;;
74465;SDS011;62916;50.044;15.938;2023-08-06T08:07:54;0.60;;;0.60;;
74465;SDS011;62916;50.044;15.938;2023-08-06T08:10:25;0.40;;;0.40;;
74465;SDS011;62916;50.044;15.938;2023-08-06T08:12:56;0.50;;;0.50;;
74465;SDS011;62916;50.044;15.938;2023-08-06T08:15:27;0.40;;;0.40;;
74465;SDS011;62916;50.044;15.938;2023-08-06T08:17:59;0.60;;;0.30;;
74465;SDS011;62916;50.044;15.938;2023-08-06T08:20:30;0.50;;;0.40;;
74465;SDS011;62916;50.044;15.938;2023-08-06T08:23:03;0.50;;;0.50;;
74465;SDS011;62916;50.044;15.938;2023-08-06T08:25:34;0.70;;;0.40;;
74465;SDS011;62916;50.044;15.938;2023-08-06T08:28:05;0.60;;;0.50;;
74465;SDS011;62916;50.044;15.938;2023-08-06T08:30:36;0.90;;;0.60;;
74465;SDS011;62916;50.044;15.938;2023-08-06T08:33:09;0.50;;;0.50;;
74465;SDS011;62916;50.044;15.938;2023-08-06T08:35:40;0.60;;;0.50;;
74465;SDS011;62916;50.044;15.938;2023-08-06T08:38:11;0.60;;;0.60;;
74465;SDS011;62916;50.044;15.938;2023-08-06T08:40:43;0.90;;;0.50;;
74465;SDS011;62916;50.044;15.938;2023-08-06T08:43:20;1.00;;;0.70;;
74465;SDS011;62916;50.044;15.938;2023-08-06T08:45:52;1.30;;;0.90;;
74465;SDS011;62916;50.044;15.938;2023-08-06T08:48:26;1.10;;;0.90;;
74465;SDS011;62916;50.044;15.938;2023-08-06T08:50:58;0.90;;;0.80;;
74465;SDS011;62916;50.044;15.938;2023-08-06T08:53:30;0.90;;;0.90;;
74465;SDS011;62916;50.044;15.938;2023-08-06T08:56:02;0.70;;;0.70;;
74465;SDS011;62916;50.044;15.938;2023-08-06T08:58:33;1.10;;;0.90;;
74465;SDS011;62916;50.044;15.938;2023-08-06T09:01:04;1.30;;;1.20;;
74465;SDS011;62916;50.044;15.938;2023-08-06T09:03:38;1.10;;;1.00;;
74465;SDS011;62916;50.044;15.938;2023-08-06T09:06:09;1.10;;;1.00;;
74465;SDS011;62916;50.044;15.938;2023-08-06T09:08:42;1.20;;;1.10;;
74465;SDS011;62916;50.044;15.938;2023-08-06T09:11:19;1.30;;;1.00;;
74465;SDS011;62916;50.044;15.938;2023-08-06T09:13:51;1.30;;;1.00;;
74465;SDS011;62916;50.044;15.938;2023-08-06T09:16:24;1.20;;;1.00;;
74465;SDS011;62916;50.044;15.938;2023-08-06T09:18:55;1.30;;;0.90;;
74465;SDS011;62916;50.044;15.938;2023-08-06T09:21:38;1.10;;;1.00;;
74465;SDS011;62916;50.044;15.938;2023-08-06T09:24:12;1.10;;;1.00;;
74465;SDS011;62916;50.044;15.938;2023-08-06T09:26:44;1.00;;;0.90;;
74465;SDS011;62916;50.044;15.938;2023-08-06T09:29:15;1.40;;;1.10;;
74465;SDS011;62916;50.044;15.938;2023-08-06T09:31:46;2.30;;;1.40;;
74465;SDS011;62916;50.044;15.938;2023-08-06T09:36:50;1.30;;;1.20;;
74465;SDS011;62916;50.044;15.938;2023-08-06T09:39:26;3.00;;;2.30;;
74465;SDS011;62916;50.044;15.938;2023-08-06T09:41:59;4.10;;;3.00;;
74465;SDS011;62916;50.044;15.938;2023-08-06T09:44:32;5.40;;;3.90;;
74465;SDS011;62916;50.044;15.938;2023-08-06T09:47:03;5.20;;;4.30;;
74465;SDS011;62916;50.044;15.938;2023-08-06T09:49:43;6.40;;;4.60;;
74465;SDS011;62916;50.044;15.938;2023-08-06T09:52:15;6.50;;;4.90;;
74465;SDS011;62916;50.044;15.938;2023-08-06T09:54:46;6.90;;;4.40;;
74465;SDS011;62916;50.044;15.938;2023-08-06T09:57:19;6.80;;;4.80;;
74465;SDS011;62916;50.044;15.938;2023-08-06T09:59:50;6.30;;;4.90;;
74465;SDS011;62916;50.044;15.938;2023-08-06T10:02:22;7.50;;;4.30;;
74465;SDS011;62916;50.044;15.938;2023-08-06T10:04:55;5.60;;;4.40;;
74465;SDS011;62916;50.044;15.938;2023-08-06T10:07:28;5.20;;;4.10;;
74465;SDS011;62916;50.044;15.938;2023-08-06T10:10:00;4.90;;;3.80;;
74465;SDS011;62916;50.044;15.938;2023-08-06T10:12:32;5.00;;;3.30;;
74465;SDS011;62916;50.044;15.938;2023-08-06T10:15:08;5.20;;;3.40;;
74465;SDS011;62916;50.044;15.938;2023-08-06T10:17:43;4.30;;;2.90;;
74465;SDS011;62916;50.044;15.938;2023-08-06T10:20:19;4.70;;;2.90;;
74465;SDS011;62916;50.044;15.938;2023-08-06T10:23:00;4.40;;;2.90;;
74465;SDS011;62916;50.044;15.938;2023-08-06T10:25:32;4.40;;;2.70;;
74465;SDS011;62916;50.044;15.938;2023-08-06T10:28:08;4.10;;;2.50;;
74465;SDS011;62916;50.044;15.938;2023-08-06T10:33:15;3.30;;;2.00;;
74465;SDS011;62916;50.044;15.938;2023-08-06T10:35:48;2.70;;;2.30;;
74465;SDS011;62916;50.044;15.938;2023-08-06T10:38:25;2.70;;;2.50;;
74465;SDS011;62916;50.044;15.938;2023-08-06T10:41:02;1.90;;;1.60;;
74465;SDS011;62916;50.044;15.938;2023-08-06T10:43:34;1.90;;;1.60;;
74465;SDS011;62916;50.044;15.938;2023-08-06T10:46:09;2.00;;;1.80;;
74465;SDS011;62916;50.044;15.938;2023-08-06T10:48:49;2.70;;;1.80;;
74465;SDS011;62916;50.044;15.938;2023-08-06T10:51:20;2.60;;;1.70;;
74465;SDS011;62916;50.044;15.938;2023-08-06T10:53:51;1.90;;;1.50;;
74465;SDS011;62916;50.044;15.938;2023-08-06T10:56:23;2.30;;;1.40;;
74465;SDS011;62916;50.044;15.938;2023-08-06T10:58:55;2.40;;;1.60;;
74465;SDS011;62916;50.044;15.938;2023-08-06T11:01:28;3.10;;;1.40;;
74465;SDS011;62916;50.044;15.938;2023-08-06T11:04:03;1.40;;;1.20;;
74465;SDS011;62916;50.044;15.938;2023-08-06T11:06:35;2.00;;;1.70;;
74465;SDS011;62916;50.044;15.938;2023-08-06T11:09:06;1.60;;;1.50;;
74465;SDS011;62916;50.044;15.938;2023-08-06T11:11:37;3.10;;;1.50;;
74465;SDS011;62916;50.044;15.938;2023-08-06T11:14:14;1.50;;;1.00;;
74465;SDS011;62916;50.044;15.938;2023-08-06T11:16:45;1.00;;;0.90;;
74465;SDS011;62916;50.044;15.938;2023-08-06T11:19:17;1.60;;;1.40;;
74465;SDS011;62916;50.044;15.938;2023-08-06T11:21:50;1.50;;;0.90;;
74465;SDS011;62916;50.044;15.938;2023-08-06T11:24:22;1.20;;;0.90;;
74465;SDS011;62916;50.044;15.938;2023-08-06T11:26:54;1.60;;;0.90;;
74465;SDS011;62916;50.044;15.938;2023-08-06T11:29:26;1.90;;;1.20;;
74465;SDS011;62916;50.044;15.938;2023-08-06T11:32:04;1.80;;;1.00;;
74465;SDS011;62916;50.044;15.938;2023-08-06T11:34:36;1.30;;;1.10;;
74465;SDS011;62916;50.044;15.938;2023-08-06T11:37:08;1.00;;;0.90;;
74465;SDS011;62916;50.044;15.938;2023-08-06T11:39:39;2.40;;;1.10;;
74465;SDS011;62916;50.044;15.938;2023-08-06T11:42:15;0.90;;;0.90;;
74465;SDS011;62916;50.044;15.938;2023-08-06T11:44:47;1.40;;;1.10;;
74465;SDS011;62916;50.044;15.938;2023-08-06T11:47:18;1.20;;;1.10;;
74465;SDS011;62916;50.044;15.938;2023-08-06T11:49:49;1.00;;;0.90;;
74465;SDS011;62916;50.044;15.938;2023-08-06T11:52:21;1.00;;;1.00;;
74465;SDS011;62916;50.044;15.938;2023-08-06T11:57:44;1.20;;;1.00;;
74465;SDS011;62916;50.044;15.938;2023-08-06T12:02:48;0.90;;;0.90;;
74465;SDS011;62916;50.044;15.938;2023-08-06T12:05:21;1.10;;;0.70;;
74465;SDS011;62916;50.044;15.938;2023-08-06T12:07:54;1.70;;;0.90;;
74465;SDS011;62916;50.044;15.938;2023-08-06T12:10:27;1.30;;;1.10;;
74465;SDS011;62916;50.044;15.938;2023-08-06T12:12:59;1.50;;;0.80;;
74465;SDS011;62916;50.044;15.938;2023-08-06T12:15:31;1.00;;;0.80;;
74465;SDS011;62916;50.044;15.938;2023-08-06T12:18:02;3.00;;;0.90;;
74465;SDS011;62916;50.044;15.938;2023-08-06T12:20:34;1.20;;;0.60;;
74465;SDS011;62916;50.044;15.938;2023-08-06T12:23:06;1.40;;;0.80;;
74465;SDS011;62916;50.044;15.938;2023-08-06T12:25:37;2.60;;;1.10;;
74465;SDS011;62916;50.044;15.938;2023-08-06T12:28:08;0.80;;;0.80;;
74465;SDS011;62916;50.044;15.938;2023-08-06T12:30:41;2.70;;;1.10;;
74465;SDS011;62916;50.044;15.938;2023-08-06T12:33:13;1.10;;;0.80;;
74465;SDS011;62916;50.044;15.938;2023-08-06T12:35:44;0.70;;;0.60;;
74465;SDS011;62916;50.044;15.938;2023-08-06T12:38:15;1.20;;;0.80;;
74465;SDS011;62916;50.044;15.938;2023-08-06T12:40:46;1.10;;;1.00;;
74465;SDS011;62916;50.044;15.938;2023-08-06T12:43:18;2.20;;;0.90;;
74465;SDS011;62916;50.044;15.938;2023-08-06T12:45:51;1.20;;;0.50;;
74465;SDS011;62916;50.044;15.938;2023-08-06T12:50:52;0.90;;;0.80;;
74465;SDS011;62916;50.044;15.938;2023-08-06T12:53:23;1.40;;;0.80;;
74465;SDS011;62916;50.044;15.938;2023-08-06T12:55:54;1.30;;;1.20;;
74465;SDS011;62916;50.044;15.938;2023-08-06T12:58:25;1.00;;;0.80;;
74465;SDS011;62916;50.044;15.938;2023-08-06T13:00:57;2.00;;;1.00;;
74465;SDS011;62916;50.044;15.938;2023-08-06T13:03:28;2.50;;;0.80;;
74465;SDS011;62916;50.044;15.938;2023-08-06T13:06:00;1.70;;;0.90;;
74465;SDS011;62916;50.044;15.938;2023-08-06T13:08:31;1.20;;;0.90;;
74465;SDS011;62916;50.044;15.938;2023-08-06T13:11:02;1.20;;;0.90;;
74465;SDS011;62916;50.044;15.938;2023-08-06T13:13:33;1.00;;;0.90;;
74465;SDS011;62916;50.044;15.938;2023-08-06T13:16:05;1.50;;;1.40;;
74465;SDS011;62916;50.044;15.938;2023-08-06T13:18:36;1.00;;;0.90;;
74465;SDS011;62916;50.044;15.938;2023-08-06T13:21:07;1.00;;;0.80;;
74465;SDS011;62916;50.044;15.938;2023-08-06T13:23:38;1.00;;;0.90;;
74465;SDS011;62916;50.044;15.938;2023-08-06T13:26:09;2.70;;;1.10;;
74465;SDS011;62916;50.044;15.938;2023-08-06T13:28:40;1.20;;;1.10;;
74465;SDS011;62916;50.044;15.938;2023-08-06T13:31:12;1.70;;;0.90;;
74465;SDS011;62916;50.044;15.938;2023-08-06T13:33:43;2.00;;;1.00;;
74465;SDS011;62916;50.044;15.938;2023-08-06T13:36:16;1.30;;;1.00;;
74465;SDS011;62916;50.044;15.938;2023-08-06T13:38:47;2.60;;;1.00;;
74465;SDS011;62916;50.044;15.938;2023-08-06T13:41:19;0.80;;;0.80;;
74465;SDS011;62916;50.044;15.938;2023-08-06T13:43:51;1.20;;;1.00;;
74465;SDS011;62916;50.044;15.938;2023-08-06T13:46:22;1.20;;;0.90;;
74465;SDS011;62916;50.044;15.938;2023-08-06T13:48:53;1.60;;;1.50;;
74465;SDS011;62916;50.044;15.938;2023-08-06T13:51:25;1.50;;;1.20;;
74465;SDS011;62916;50.044;15.938;2023-08-06T13:53:56;1.20;;;1.10;;
74465;SDS011;62916;50.044;15.938;2023-08-06T13:56:27;1.30;;;1.10;;
74465;SDS011;62916;50.044;15.938;2023-08-06T13:59:00;1.50;;;0.90;;
74465;SDS011;62916;50.044;15.938;2023-08-06T14:01:31;2.10;;;1.70;;
74465;SDS011;62916;50.044;15.938;2023-08-06T14:04:17;2.20;;;2.00;;
74465;SDS011;62916;50.044;15.938;2023-08-06T14:06:49;1.60;;;1.20;;
74465;SDS011;62916;50.044;15.938;2023-08-06T14:09:20;1.50;;;1.40;;
74465;SDS011;62916;50.044;15.938;2023-08-06T14:11:52;1.10;;;1.00;;
74465;SDS011;62916;50.044;15.938;2023-08-06T14:14:23;2.10;;;1.20;;
74465;SDS011;62916;50.044;15.938;2023-08-06T14:16:55;1.20;;;1.10;;
74465;SDS011;62916;50.044;15.938;2023-08-06T14:19:26;1.90;;;1.80;;
74465;SDS011;62916;50.044;15.938;2023-08-06T14:21:58;2.30;;;1.50;;
74465;SDS011;62916;50.044;15.938;2023-08-06T14:24:29;1.30;;;1.20;;
74465;SDS011;62916;50.044;15.938;2023-08-06T14:27:00;2.50;;;1.20;;
74465;SDS011;62916;50.044;15.938;2023-08-06T14:29:32;1.60;;;1.30;;
74465;SDS011;62916;50.044;15.938;2023-08-06T14:32:03;1.90;;;1.70;;
74465;SDS011;62916;50.044;15.938;2023-08-06T14:34:35;2.20;;;1.30;;
74465;SDS011;62916;50.044;15.938;2023-08-06T14:37:07;1.70;;;1.60;;
74465;SDS011;62916;50.044;15.938;2023-08-06T14:39:38;1.60;;;1.50;;
74465;SDS011;62916;50.044;15.938;2023-08-06T14:42:09;2.00;;;1.30;;
74465;SDS011;62916;50.044;15.938;2023-08-06T14:44:40;1.70;;;1.50;;
74465;SDS011;62916;50.044;15.938;2023-08-06T14:47:11;1.90;;;1.50;;
74465;SDS011;62916;50.044;15.938;2023-08-06T14:49:42;1.90;;;1.80;;
74465;SDS011;62916;50.044;15.938;2023-08-06T14:52:13;2.10;;;1.90;;
74465;SDS011;62916;50.044;15.938;2023-08-06T14:57:20;2.10;;;1.80;;
74465;SDS011;62916;50.044;15.938;2023-08-06T14:59:55;1.80;;;1.70;;
74465;SDS011;62916;50.044;15.938;2023-08-06T15:02:26;2.60;;;1.90;;
74465;SDS011;62916;50.044;15.938;2023-08-06T15:04:58;3.50;;;2.10;;
74465;SDS011;62916;50.044;15.938;2023-08-06T15:07:29;2.00;;;1.80;;
74465;SDS011;62916;50.044;15.938;2023-08-06T15:10:03;2.40;;;2.20;;
74465;SDS011;62916;50.044;15.938;2023-08-06T15:12:54;2.40;;;2.10;;
74465;SDS011;62916;50.044;15.938;2023-08-06T15:15:27;2.50;;;2.30;;